Time;durP1;ratioP1;P1;durP2;ratioP2;P2;SDS_P1;SDS_P2;PMS_P1;PMS_P2;Temp;Humidity;BMP_temperature;BMP_pressure;BME280_temperature;BME280_humidity;BME280_pressure;Samples;Min_cycle;Max_cycle;Signal;HPM_P1;HPM_P2
2021/01/14 00:01:09;;;;;;;6.20;3.50;;;0.30;99.90;;;;;;5068491;28;20047;-74
2021/01/14 00:03:35;;;;;;;8.00;3.20;;;0.40;99.90;;;;;;5060757;28;20486;-74
2021/01/14 00:06:01;;;;;;;4.95;2.50;;;0.40;99.90;;;;;;5064305;28;20024;-73
2021/01/14 00:08:27;;;;;;;2.70;1.80;;;0.40;99.90;;;;;;5071257;28;20028;-74
2021/01/14 00:10:52;;;;;;;3.50;1.40;;;0.40;99.90;;;;;;5071374;28;20024;-74
2021/01/14 00:13:18;;;;;;;1.95;1.20;;;0.30;99.90;;;;;;5070967;28;20376;-74
2021/01/14 00:15:44;;;;;;;2.00;1.13;;;0.30;99.90;;;;;;5073231;28;20108;-73
2021/01/14 00:18:10;;;;;;;4.95;1.30;;;0.20;99.90;;;;;;5091643;28;20398;-74
2021/01/14 00:20:35;;;;;;;2.53;1.30;;;0.20;99.90;;;;;;5077574;28;20056;-74
2021/01/14 00:23:01;;;;;;;1.80;1.23;;;0.20;99.90;;;;;;5068394;28;20572;-73
2021/01/14 00:25:27;;;;;;;2.63;0.90;;;0.20;99.90;;;;;;5070337;28;20024;-73
2021/01/14 00:27:53;;;;;;;2.08;1.00;;;0.20;99.90;;;;;;5065817;28;20052;-74
2021/01/14 00:30:30;;;;;;;1.55;1.20;;;0.20;99.90;;;;;;5068977;28;20028;-74
2021/01/14 00:32:57;;;;;;;1.52;1.27;;;0.10;99.90;;;;;;5064057;28;20052;-74
2021/01/14 00:35:23;;;;;;;3.03;1.30;;;0.00;99.90;;;;;;5071858;28;20502;-73
2021/01/14 00:37:53;;;;;;;3.17;1.20;;;0.00;99.90;;;;;;5070443;28;20040;-73
2021/01/14 00:40:31;;;;;;;1.80;1.10;;;-0.10;99.90;;;;;;5053466;28;20032;-73
2021/01/14 00:43:02;;;;;;;2.78;1.40;;;-0.10;99.90;;;;;;5070450;28;20036;-73
2021/01/14 00:45:29;;;;;;;2.28;1.33;;;-0.10;99.90;;;;;;5070312;28;20067;-73
2021/01/14 00:47:55;;;;;;;1.40;1.02;;;-0.10;99.90;;;;;;5070371;28;20111;-73
2021/01/14 00:50:21;;;;;;;2.72;1.42;;;-0.20;99.90;;;;;;5070274;28;20103;-73
2021/01/14 00:52:47;;;;;;;3.10;1.38;;;-0.20;99.90;;;;;;5071453;28;20497;-73
2021/01/14 00:55:17;;;;;;;2.25;1.67;;;-0.20;99.90;;;;;;5048151;28;20025;-73
2021/01/14 00:57:43;;;;;;;5.70;1.50;;;-0.20;99.90;;;;;;5069028;28;20029;-75
2021/01/14 01:00:19;;;;;;;1.70;1.40;;;-0.20;99.90;;;;;;5068369;28;20119;-73
2021/01/14 01:02:45;;;;;;;2.90;1.58;;;-0.10;99.90;;;;;;5070306;28;20040;-73
2021/01/14 01:05:11;;;;;;;1.90;1.30;;;-0.10;99.90;;;;;;5057699;28;20029;-73
2021/01/14 01:07:38;;;;;;;2.35;1.38;;;-0.10;99.90;;;;;;5053402;28;20039;-73
2021/01/14 01:10:06;;;;;;;1.55;1.13;;;-0.10;99.90;;;;;;5069265;28;20528;-73
2021/01/14 01:12:32;;;;;;;2.72;1.38;;;-0.20;99.90;;;;;;5066361;28;20036;-74
2021/01/14 01:14:58;;;;;;;2.10;1.42;;;-0.20;99.90;;;;;;5069397;28;20025;-73
2021/01/14 01:17:29;;;;;;;3.58;1.33;;;-0.20;99.90;;;;;;5069527;28;20147;-73
2021/01/14 01:19:59;;;;;;;4.43;1.10;;;-0.20;99.90;;;;;;5069333;28;20411;-74
2021/01/14 01:22:25;;;;;;;2.63;1.23;;;-0.30;99.90;;;;;;5070217;28;20036;-74
2021/01/14 01:24:51;;;;;;;1.17;0.93;;;-0.30;99.90;;;;;;5070942;28;20031;-74
2021/01/14 01:27:17;;;;;;;1.55;0.88;;;-0.30;99.90;;;;;;5052666;28;20119;-74
2021/01/14 01:29:42;;;;;;;1.48;0.85;;;-0.30;99.90;;;;;;5068279;28;20024;-74
2021/01/14 01:32:08;;;;;;;0.80;0.68;;;-0.40;99.90;;;;;;5070587;28;20468;-74
2021/01/14 01:34:34;;;;;;;1.95;0.77;;;-0.40;99.90;;;;;;5070054;28;20032;-74
2021/01/14 01:36:59;;;;;;;3.75;0.70;;;-0.40;99.90;;;;;;5070462;28;20456;-74
2021/01/14 01:39:25;;;;;;;1.77;0.80;;;-0.40;99.90;;;;;;5068686;28;20123;-74
2021/01/14 01:41:56;;;;;;;0.50;0.50;;;-0.50;99.90;;;;;;5068536;28;20086;-74
2021/01/14 01:44:23;;;;;;;1.70;0.80;;;-0.50;99.90;;;;;;5068141;28;20037;-74
2021/01/14 01:46:48;;;;;;;3.15;0.65;;;-0.60;99.90;;;;;;5067819;28;20090;-74
2021/01/14 01:49:14;;;;;;;0.60;0.40;;;-0.60;99.90;;;;;;5048675;28;20620;-74
2021/01/14 01:51:42;;;;;;;3.35;0.88;;;-0.60;99.90;;;;;;5069082;28;20037;-74
2021/01/14 01:54:10;;;;;;;2.63;0.90;;;-0.60;99.90;;;;;;5069070;28;20056;-74
2021/01/14 01:56:36;;;;;;;2.58;0.90;;;-0.60;99.90;;;;;;5068919;28;20406;-74
2021/01/14 01:59:04;;;;;;;3.35;0.70;;;-0.60;99.90;;;;;;5064833;28;20032;-74
2021/01/14 02:01:30;;;;;;;1.48;0.85;;;-0.60;99.90;;;;;;5073049;28;20036;-74
2021/01/14 02:03:55;;;;;;;0.50;0.40;;;-0.70;99.90;;;;;;5069839;28;20025;-74
2021/01/14 02:06:22;;;;;;;1.67;0.30;;;-0.70;99.90;;;;;;5080086;28;20107;-74
2021/01/14 02:09:06;;;;;;;1.48;0.70;;;-0.70;99.90;;;;;;5078884;28;20035;-74
2021/01/14 02:11:41;;;;;;;0.85;0.35;;;-0.70;99.90;;;;;;5084036;28;20086;-75
2021/01/14 02:14:19;;;;;;;3.67;0.40;;;-0.70;99.90;;;;;;5070160;28;20028;-74
2021/01/14 02:16:45;;;;;;;2.92;0.45;;;-0.70;99.90;;;;;;5070102;28;20028;-74
2021/01/14 02:19:35;;;;;;;0.55;0.38;;;-0.70;99.90;;;;;;5067224;28;20116;-74
2021/01/14 02:22:09;;;;;;;0.75;0.40;;;-0.70;99.90;;;;;;5064911;28;20538;-74
2021/01/14 02:24:43;;;;;;;2.85;0.55;;;-0.70;99.90;;;;;;5069695;28;20016;-74
2021/01/14 02:27:09;;;;;;;0.65;0.40;;;-0.70;99.90;;;;;;5069914;28;20029;-74
2021/01/14 02:29:37;;;;;;;0.82;0.45;;;-0.70;99.90;;;;;;5068352;28;20021;-74
2021/01/14 02:32:03;;;;;;;0.30;0.20;;;-0.70;99.90;;;;;;5069502;28;20093;-74
2021/01/14 02:34:29;;;;;;;3.95;0.40;;;-0.70;99.90;;;;;;5068535;28;20487;-74
2021/01/14 02:36:55;;;;;;;1.85;0.35;;;-0.80;99.90;;;;;;5051882;28;20043;-74
2021/01/14 02:39:20;;;;;;;1.25;0.32;;;-0.80;99.90;;;;;;5069201;28;20029;-74
2021/01/14 02:41:46;;;;;;;2.00;0.30;;;-0.80;99.90;;;;;;5067722;28;20040;-74
2021/01/14 02:44:12;;;;;;;2.00;0.20;;;-0.80;99.90;;;;;;5068564;28;20039;-74
2021/01/14 02:46:38;;;;;;;2.38;0.20;;;-0.80;99.90;;;;;;5072492;28;20471;-74
2021/01/14 02:49:09;;;;;;;3.03;0.22;;;-0.90;99.90;;;;;;5072909;28;20025;-74
2021/01/14 02:51:49;;;;;;;0.45;0.40;;;-0.90;99.90;;;;;;5071742;28;20032;-74
2021/01/14 02:54:16;;;;;;;3.15;0.40;;;-0.90;99.90;;;;;;5073881;28;20039;-74
2021/01/14 02:56:47;;;;;;;0.77;0.30;;;-0.90;99.90;;;;;;5073650;28;20033;-74
2021/01/14 02:59:12;;;;;;;1.33;0.20;;;-1.00;99.90;;;;;;5071551;28;20033;-75
2021/01/14 03:01:38;;;;;;;2.17;0.28;;;-1.00;99.90;;;;;;5072364;28;20163;-74
2021/01/14 03:04:04;;;;;;;2.45;0.22;;;-1.00;99.90;;;;;;5063702;28;20021;-74
2021/01/14 03:06:29;;;;;;;1.15;0.30;;;-1.00;99.90;;;;;;5052276;28;20025;-74
2021/01/14 03:08:55;;;;;;;1.08;0.32;;;-1.00;99.90;;;;;;5052792;28;20082;-75
2021/01/14 03:11:28;;;;;;;0.90;0.20;;;-1.00;99.90;;;;;;5051298;28;20075;-74
2021/01/14 03:13:55;;;;;;;0.35;0.30;;;-1.00;99.90;;;;;;5068670;28;20072;-74
2021/01/14 03:16:21;;;;;;;2.53;0.13;;;-1.10;99.90;;;;;;5053185;28;20042;-74
2021/01/14 03:18:51;;;;;;;0.80;0.45;;;-1.10;99.90;;;;;;5052276;28;20032;-73
2021/01/14 03:21:26;;;;;;;1.42;0.50;;;-1.00;99.90;;;;;;5052268;28;20033;-73
2021/01/14 03:23:52;;;;;;;0.88;0.40;;;-1.00;99.90;;;;;;5068488;28;20037;-74
2021/01/14 03:26:19;;;;;;;0.25;0.17;;;-1.00;99.90;;;;;;5052879;28;20036;-73
2021/01/14 03:28:45;;;;;;;0.32;0.28;;;-1.10;99.90;;;;;;5051388;28;20029;-74
2021/01/14 03:31:12;;;;;;;1.15;0.20;;;-1.00;99.90;;;;;;5052516;28;20025;-74
2021/01/14 03:33:38;;;;;;;4.82;0.25;;;-1.00;99.90;;;;;;5068038;28;20110;-74
2021/01/14 03:36:05;;;;;;;2.60;0.28;;;-1.00;99.90;;;;;;5052981;28;20043;-74
2021/01/14 03:38:35;;;;;;;0.90;0.35;;;-1.00;99.90;;;;;;5064322;28;20387;-74
2021/01/14 03:41:02;;;;;;;1.48;0.20;;;-1.00;99.90;;;;;;5072050;28;20036;-74
2021/01/14 03:43:27;;;;;;;1.65;0.55;;;-1.00;99.90;;;;;;5072868;28;20489;-75
2021/01/14 03:45:53;;;;;;;1.38;0.22;;;-1.00;99.90;;;;;;5072594;28;20052;-74
2021/01/14 03:48:19;;;;;;;4.85;0.47;;;-1.10;99.90;;;;;;5071917;28;20114;-74
2021/01/14 03:50:44;;;;;;;2.75;0.30;;;-1.00;99.90;;;;;;5070576;28;20086;-73
2021/01/14 03:53:10;;;;;;;2.22;0.32;;;-1.10;99.90;;;;;;5054844;28;20037;-75
2021/01/14 03:55:36;;;;;;;1.27;0.40;;;-1.20;99.90;;;;;;5072400;28;20035;-73
2021/01/14 03:58:01;;;;;;;1.40;0.30;;;-1.20;99.90;;;;;;5071666;28;20503;-74
2021/01/14 04:00:27;;;;;;;1.33;0.50;;;-1.20;99.90;;;;;;5071704;28;20115;-74
2021/01/14 04:02:53;;;;;;;3.15;0.40;;;-1.20;99.90;;;;;;5072061;28;20032;-73
2021/01/14 04:05:19;;;;;;;2.22;0.20;;;-1.10;99.90;;;;;;5072543;28;20424;-73
2021/01/14 04:07:44;;;;;;;2.22;0.20;;;-1.20;99.90;;;;;;5072450;28;20025;-74
2021/01/14 04:10:10;;;;;;;0.30;0.20;;;-1.20;99.90;;;;;;5069619;28;20032;-74
2021/01/14 04:12:36;;;;;;;0.52;0.38;;;-1.20;99.90;;;;;;5072085;28;20040;-73
2021/01/14 04:15:03;;;;;;;1.80;0.40;;;-1.20;99.90;;;;;;5073075;28;20116;-74
2021/01/14 04:17:28;;;;;;;4.32;0.50;;;-1.30;99.90;;;;;;5088972;28;20032;-74
2021/01/14 04:19:54;;;;;;;2.42;0.50;;;-1.30;99.90;;;;;;5090607;28;20436;-74
2021/01/14 04:22:20;;;;;;;1.35;0.30;;;-1.30;99.90;;;;;;5074180;28;20047;-74
2021/01/14 04:24:46;;;;;;;0.15;0.15;;;-1.30;99.90;;;;;;5090790;28;20048;-74
2021/01/14 04:27:12;;;;;;;3.33;0.38;;;-1.30;99.90;;;;;;5092215;28;20527;-74
2021/01/14 04:29:37;;;;;;;3.25;0.60;;;-1.30;99.90;;;;;;5090766;28;20024;-74
2021/01/14 04:32:03;;;;;;;1.45;0.40;;;-1.40;99.90;;;;;;5086056;28;20029;-74
2021/01/14 04:34:29;;;;;;;2.58;0.20;;;-1.30;99.90;;;;;;5070719;28;20457;-74
2021/01/14 04:37:01;;;;;;;2.45;0.77;;;-1.30;99.90;;;;;;5071732;28;20032;-74
2021/01/14 04:39:28;;;;;;;1.33;0.30;;;-1.40;99.90;;;;;;5070858;28;20120;-74
2021/01/14 04:41:59;;;;;;;2.85;0.55;;;-1.40;99.90;;;;;;5071215;28;20032;-74
2021/01/14 04:44:26;;;;;;;0.88;0.13;;;-1.40;99.90;;;;;;5071535;28;20041;-74
2021/01/14 04:47:12;;;;;;;0.95;0.40;;;-1.30;99.90;;;;;;5071320;28;20036;-74
2021/01/14 04:49:38;;;;;;;0.20;0.20;;;-1.40;99.90;;;;;;5052154;28;20078;-74
2021/01/14 04:52:05;;;;;;;1.40;0.50;;;-1.40;99.90;;;;;;5071401;28;20036;-74
2021/01/14 04:54:35;;;;;;;2.05;0.63;;;-1.30;99.90;;;;;;5071444;28;20031;-74
2021/01/14 04:57:18;;;;;;;0.30;0.25;;;-1.30;99.90;;;;;;5071352;28;20491;-74
2021/01/14 04:59:51;;;;;;;0.88;0.43;;;-1.30;99.90;;;;;;5069982;28;20445;-74
2021/01/14 05:02:22;;;;;;;2.17;0.30;;;-1.30;99.90;;;;;;5070216;28;20036;-74
2021/01/14 05:04:52;;;;;;;0.75;0.30;;;-1.30;99.90;;;;;;5062829;28;20028;-74
2021/01/14 05:07:34;;;;;;;1.98;0.55;;;-1.30;99.90;;;;;;5071049;28;20047;-74
2021/01/14 05:10:07;;;;;;;0.85;0.47;;;-1.20;99.90;;;;;;5064646;28;20107;-74
2021/01/14 05:12:37;;;;;;;2.58;0.43;;;-1.30;99.90;;;;;;5070769;28;20028;-74
2021/01/14 05:15:03;;;;;;;3.13;0.52;;;-1.30;99.90;;;;;;5070706;28;20028;-74
2021/01/14 05:17:29;;;;;;;0.47;0.47;;;-1.20;99.90;;;;;;5069186;28;20032;-74
2021/01/14 05:19:55;;;;;;;0.60;0.30;;;-1.20;99.90;;;;;;5069537;28;20025;-74
2021/01/14 05:22:25;;;;;;;1.08;0.40;;;-1.20;99.90;;;;;;5070379;28;20029;-74
2021/01/14 05:25:08;;;;;;;1.45;0.90;;;-1.20;99.90;;;;;;5070879;28;20028;-74
2021/01/14 05:27:35;;;;;;;1.58;0.40;;;-1.20;99.90;;;;;;5070797;28;20036;-74
2021/01/14 05:30:03;;;;;;;1.63;0.57;;;-1.20;99.90;;;;;;5068010;28;20211;-74
2021/01/14 05:32:39;;;;;;;0.88;0.38;;;-1.20;99.90;;;;;;5070132;28;20072;-74
2021/01/14 05:35:07;;;;;;;0.68;0.47;;;-1.10;99.90;;;;;;5070681;28;20448;-74
2021/01/14 05:37:43;;;;;;;3.28;0.35;;;-1.20;99.90;;;;;;5070540;28;20056;-74
2021/01/14 05:40:11;;;;;;;4.00;0.63;;;-1.20;99.90;;;;;;5069211;28;20036;-73
2021/01/14 05:42:38;;;;;;;0.70;0.45;;;-1.20;99.90;;;;;;5068865;28;20040;-74
2021/01/14 05:45:26;;;;;;;1.55;0.35;;;-1.20;99.90;;;;;;5070507;28;20032;-73
2021/01/14 05:48:06;;;;;;;1.48;0.38;;;-1.10;99.90;;;;;;5068591;28;20044;-73
2021/01/14 05:50:39;;;;;;;3.17;0.47;;;-1.10;99.90;;;;;;5051629;28;20056;-74
2021/01/14 05:53:16;;;;;;;2.28;0.50;;;-1.10;99.90;;;;;;5070316;28;20111;-73
2021/01/14 05:55:43;;;;;;;0.32;0.32;;;-1.10;99.90;;;;;;5070483;28;20024;-73
2021/01/14 05:58:15;;;;;;;2.05;0.40;;;-1.10;99.90;;;;;;5068590;28;20040;-74
2021/01/14 06:00:44;;;;;;;2.63;0.63;;;-1.10;99.90;;;;;;5069057;28;20042;-74
2021/01/14 06:03:27;;;;;;;1.15;0.55;;;-1.10;99.90;;;;;;5069835;28;20036;-74
2021/01/14 06:05:54;;;;;;;2.05;0.35;;;-1.10;99.90;;;;;;5070406;28;20124;-74
2021/01/14 06:08:22;;;;;;;1.17;0.40;;;-1.10;99.90;;;;;;5069592;28;20577;-74
2021/01/14 06:10:48;;;;;;;3.30;0.55;;;-1.10;99.90;;;;;;5081980;28;20119;-73
2021/01/14 06:13:14;;;;;;;1.95;0.65;;;-1.10;99.90;;;;;;5072192;28;20171;-74
2021/01/14 06:15:40;;;;;;;1.75;0.50;;;-1.10;99.90;;;;;;5070051;28;20025;-74
2021/01/14 06:18:11;;;;;;;5.28;0.68;;;-1.10;99.90;;;;;;5069333;28;20039;-74
2021/01/14 06:20:51;;;;;;;3.40;0.60;;;-1.10;99.90;;;;;;5067657;28;20136;-74
2021/01/14 06:23:18;;;;;;;2.58;0.77;;;-1.20;99.90;;;;;;5068052;28;20033;-74
2021/01/14 06:25:51;;;;;;;0.63;0.43;;;-1.10;99.90;;;;;;5068666;28;20028;-75
2021/01/14 06:28:20;;;;;;;4.68;0.55;;;-1.10;99.90;;;;;;5064074;28;20374;-74
2021/01/14 06:31:01;;;;;;;4.47;0.70;;;-1.10;99.90;;;;;;5083362;28;20627;-74
2021/01/14 06:33:28;;;;;;;1.02;0.68;;;-1.10;99.90;;;;;;5067425;28;20093;-74
2021/01/14 06:36:12;;;;;;;1.67;0.70;;;-1.10;99.90;;;;;;5068462;28;20029;-74
2021/01/14 06:38:45;;;;;;;0.77;0.32;;;-1.10;99.90;;;;;;5067451;28;20067;-74
2021/01/14 06:41:17;;;;;;;2.05;1.17;;;-1.00;99.90;;;;;;5069285;28;20032;-74
2021/01/14 06:43:46;;;;;;;0.65;0.30;;;-1.00;99.90;;;;;;5068828;28;20016;-74
2021/01/14 06:46:22;;;;;;;0.70;0.52;;;-1.00;99.90;;;;;;5069291;28;20027;-74
2021/01/14 06:49:03;;;;;;;0.85;0.60;;;-1.10;99.90;;;;;;5064381;28;20028;-74
2021/01/14 06:51:59;;;;;;;0.80;0.50;;;-1.00;99.90;;;;;;5064980;28;20040;-74
2021/01/14 06:54:26;;;;;;;0.73;0.40;;;-1.00;99.90;;;;;;5041774;28;20089;-74
2021/01/14 06:57:08;;;;;;;2.92;0.60;;;-1.00;99.90;;;;;;5063702;28;20222;-73
2021/01/14 06:59:38;;;;;;;1.35;0.57;;;-1.00;99.90;;;;;;5064816;28;20028;-74
2021/01/14 07:02:07;;;;;;;2.35;0.50;;;-1.00;99.90;;;;;;5064506;28;20082;-74
2021/01/14 07:04:44;;;;;;;0.52;0.50;;;-1.00;99.90;;;;;;5054986;28;20023;-74
2021/01/14 07:07:26;;;;;;;4.00;0.60;;;-1.00;99.90;;;;;;5059743;28;20021;-74
2021/01/14 07:10:06;;;;;;;1.45;0.63;;;-1.00;99.90;;;;;;5067978;28;20024;-74
2021/01/14 07:12:37;;;;;;;2.17;0.50;;;-1.00;99.90;;;;;;5066093;28;20048;-74
2021/01/14 07:15:14;;;;;;;1.02;0.30;;;-1.00;99.90;;;;;;5063643;28;20530;-74
2021/01/14 07:17:44;;;;;;;1.25;0.65;;;-1.00;99.90;;;;;;5066389;28;20059;-74
2021/01/14 07:20:13;;;;;;;1.33;0.57;;;-1.00;99.90;;;;;;5063988;28;20127;-74
2021/01/14 07:22:42;;;;;;;0.40;0.40;;;-1.00;99.90;;;;;;5067014;28;20032;-74
2021/01/14 07:25:10;;;;;;;0.98;0.75;;;-1.00;99.90;;;;;;5059943;28;20024;-74
2021/01/14 07:27:37;;;;;;;0.70;0.55;;;-1.00;99.90;;;;;;5062745;28;20024;-74
2021/01/14 07:30:05;;;;;;;1.77;0.70;;;-0.90;99.90;;;;;;5061599;28;20025;-74
2021/01/14 07:32:50;;;;;;;0.98;0.60;;;-0.90;99.90;;;;;;5063923;28;20104;-74
2021/01/14 07:35:36;;;;;;;0.70;0.40;;;-0.90;99.90;;;;;;5057485;28;20066;-74
2021/01/14 07:38:03;;;;;;;1.83;0.50;;;-0.90;99.90;;;;;;5067682;28;20135;-74
2021/01/14 07:40:30;;;;;;;0.95;0.57;;;-0.90;99.90;;;;;;5070399;28;20364;-74
2021/01/14 07:42:58;;;;;;;1.73;0.50;;;-0.90;99.90;;;;;;5070574;28;20029;-74
2021/01/14 07:45:24;;;;;;;0.95;0.50;;;-0.90;99.90;;;;;;5076094;28;20037;-73
2021/01/14 07:47:50;;;;;;;0.80;0.70;;;-0.90;99.90;;;;;;5078358;28;20429;-73
2021/01/14 07:50:21;;;;;;;0.73;0.70;;;-0.80;99.90;;;;;;5081664;28;20040;-75
2021/01/14 07:52:48;;;;;;;1.33;0.47;;;-0.80;99.90;;;;;;5081883;28;20040;-74
2021/01/14 07:55:26;;;;;;;0.60;0.45;;;-0.70;99.90;;;;;;5071712;28;20032;-74
2021/01/14 07:58:23;;;;;;;3.47;0.80;;;-0.70;99.90;;;;;;5066730;28;20082;-73
2021/01/14 08:01:10;;;;;;;1.92;0.40;;;-0.70;99.90;;;;;;5078938;28;20039;-74
2021/01/14 08:03:39;;;;;;;1.33;0.50;;;-0.70;99.90;;;;;;5082222;28;20026;-74
2021/01/14 08:06:34;;;;;;;1.75;0.80;;;-0.70;99.90;;;;;;5072453;28;20023;-73
2021/01/14 08:09:11;;;;;;;0.52;0.40;;;-0.70;99.90;;;;;;5061768;28;20025;-74
2021/01/14 08:11:43;;;;;;;1.73;0.68;;;-0.60;99.90;;;;;;5066231;28;20548;-74
2021/01/14 08:14:12;;;;;;;0.80;0.57;;;-0.60;99.90;;;;;;5067299;28;20020;-74
2021/01/14 08:16:54;;;;;;;0.65;0.45;;;-0.60;99.90;;;;;;5066384;28;20029;-74
2021/01/14 08:19:20;;;;;;;1.13;0.60;;;-0.50;99.90;;;;;;5068126;28;20062;-73
2021/01/14 08:22:06;;;;;;;1.65;0.45;;;-0.50;99.90;;;;;;5060877;28;20033;-74
2021/01/14 08:24:34;;;;;;;2.80;0.75;;;-0.50;99.90;;;;;;5061433;28;20060;-73
2021/01/14 08:27:11;;;;;;;1.92;0.40;;;-0.50;99.90;;;;;;5067381;28;20107;-74
2021/01/14 08:29:50;;;;;;;2.72;0.60;;;-0.50;99.90;;;;;;5063438;28;20545;-74
2021/01/14 08:32:38;;;;;;;2.38;0.80;;;-0.40;99.90;;;;;;5061048;28;20037;-75
2021/01/14 08:35:16;;;;;;;1.25;0.70;;;-0.40;99.90;;;;;;5063477;28;20094;-73
2021/01/14 08:38:06;;;;;;;0.63;0.52;;;-0.40;99.90;;;;;;5067478;28;20033;-75
2021/01/14 08:40:36;;;;;;;1.20;0.70;;;-0.30;99.90;;;;;;5068008;28;20020;-74
2021/01/14 08:43:04;;;;;;;0.98;0.57;;;-0.30;99.90;;;;;;5068526;28;20029;-74
2021/01/14 08:45:51;;;;;;;1.40;0.30;;;-0.30;99.90;;;;;;5076277;28;20116;-74
2021/01/14 08:48:26;;;;;;;0.52;0.52;;;-0.30;99.90;;;;;;5070690;28;20788;-73
2021/01/14 08:50:55;;;;;;;1.15;0.60;;;-0.30;99.90;;;;;;5077883;28;20020;-74
2021/01/14 08:53:27;;;;;;;0.63;0.50;;;-0.20;99.90;;;;;;5074615;28;20111;-74
2021/01/14 08:55:56;;;;;;;0.98;0.65;;;-0.10;99.90;;;;;;5042062;28;20657;-73
2021/01/14 08:58:39;;;;;;;2.15;0.65;;;-0.10;99.90;;;;;;5075601;28;20479;-74
2021/01/14 09:01:07;;;;;;;1.50;0.60;;;0.00;99.90;;;;;;5068440;28;20069;-73
2021/01/14 09:03:34;;;;;;;0.68;0.43;;;0.00;99.90;;;;;;5084356;28;20020;-73
2021/01/14 09:05:59;;;;;;;2.63;0.63;;;0.00;99.90;;;;;;5075004;28;20033;-73
2021/01/14 09:08:25;;;;;;;0.50;0.50;;;-0.10;99.90;;;;;;5064943;28;20127;-74
2021/01/14 09:10:56;;;;;;;0.50;0.50;;;-0.10;99.90;;;;;;5055465;28;20495;-74
2021/01/14 09:13:23;;;;;;;3.97;0.60;;;-0.10;99.90;;;;;;5062378;28;20083;-73
2021/01/14 09:15:52;;;;;;;0.43;0.43;;;0.00;99.90;;;;;;5060669;28;20033;-73
2021/01/14 09:18:19;;;;;;;0.90;0.57;;;0.00;99.90;;;;;;5065825;28;20494;-73
2021/01/14 09:20:55;;;;;;;0.95;0.60;;;0.20;99.90;;;;;;5067079;28;20043;-75
2021/01/14 09:23:32;;;;;;;2.45;0.80;;;0.40;99.90;;;;;;5071605;28;20043;-74
2021/01/14 09:25:58;;;;;;;2.78;1.00;;;0.40;99.90;;;;;;5047629;28;20037;-74
2021/01/14 09:28:26;;;;;;;1.30;1.00;;;0.50;99.90;;;;;;5031355;28;20127;-74
2021/01/14 09:31:00;;;;;;;0.95;0.63;;;0.50;99.90;;;;;;5031761;28;20025;-74
2021/01/14 09:33:29;;;;;;;3.35;0.70;;;0.50;99.90;;;;;;5049336;28;20025;-74
2021/01/14 09:36:02;;;;;;;1.25;0.90;;;0.50;99.90;;;;;;5070288;28;20020;-75
2021/01/14 09:38:28;;;;;;;1.10;0.98;;;0.50;99.90;;;;;;5064437;28;20491;-74
2021/01/14 09:40:57;;;;;;;0.80;0.47;;;0.50;99.90;;;;;;5067503;28;20029;-74
2021/01/14 09:43:26;;;;;;;0.50;0.50;;;0.50;99.90;;;;;;5052219;28;20511;-74
2021/01/14 09:45:52;;;;;;;1.65;0.65;;;0.60;99.90;;;;;;5070529;28;20031;-74
2021/01/14 09:48:20;;;;;;;2.17;0.73;;;0.60;99.90;;;;;;5069647;28;20540;-73
2021/01/14 09:50:46;;;;;;;1.27;0.80;;;0.60;99.90;;;;;;5068432;28;20079;-74
2021/01/14 09:53:12;;;;;;;1.55;0.82;;;0.70;99.90;;;;;;5070203;28;20505;-74
2021/01/14 09:55:40;;;;;;;0.85;0.70;;;0.60;99.90;;;;;;5068962;28;20415;-74
2021/01/14 09:58:07;;;;;;;2.50;0.60;;;0.60;99.90;;;;;;5069321;28;20029;-74
2021/01/14 10:00:35;;;;;;;2.22;1.35;;;0.50;99.90;;;;;;5063445;28;20116;-74
2021/01/14 10:03:06;;;;;;;2.85;0.90;;;0.60;99.90;;;;;;5057197;28;20400;-74
2021/01/14 10:05:32;;;;;;;1.35;0.70;;;0.60;99.90;;;;;;5043653;28;20055;-73
2021/01/14 10:08:01;;;;;;;0.73;0.60;;;0.70;99.90;;;;;;5058606;28;20109;-74
2021/01/14 10:10:31;;;;;;;2.22;0.82;;;0.70;99.90;;;;;;5058138;28;20448;-74
2021/01/14 10:13:00;;;;;;;2.15;0.77;;;0.80;99.90;;;;;;5060538;28;20425;-74
2021/01/14 10:15:26;;;;;;;0.70;0.70;;;1.00;99.90;;;;;;5057893;28;20043;-74
2021/01/14 10:17:52;;;;;;;2.50;0.75;;;1.10;99.90;;;;;;5068700;28;20123;-74
2021/01/14 10:20:21;;;;;;;4.32;1.02;;;1.10;99.90;;;;;;5059192;28;20581;-74
2021/01/14 10:23:04;;;;;;;1.63;1.00;;;1.20;99.90;;;;;;5051442;28;20078;-74
2021/01/14 10:25:30;;;;;;;1.63;0.80;;;1.20;99.90;;;;;;5068805;28;20025;-74
2021/01/14 10:28:04;;;;;;;1.77;1.27;;;1.20;99.90;;;;;;5050273;28;20561;-74
2021/01/14 10:30:30;;;;;;;1.90;0.80;;;1.10;99.90;;;;;;5068360;28;20100;-74
2021/01/14 10:33:01;;;;;;;1.85;0.98;;;1.00;99.90;;;;;;5068330;28;20024;-75
2021/01/14 10:35:29;;;;;;;0.70;0.70;;;1.10;99.90;;;;;;5067167;28;20033;-75
2021/01/14 10:38:11;;;;;;;1.75;1.00;;;1.10;99.90;;;;;;5069988;28;20055;-74
2021/01/14 10:40:40;;;;;;;1.00;0.82;;;1.00;99.90;;;;;;5051249;28;20064;-74
2021/01/14 10:43:07;;;;;;;2.55;0.90;;;1.00;99.90;;;;;;5049675;28;20041;-74
2021/01/14 10:45:34;;;;;;;1.13;0.90;;;1.00;99.90;;;;;;5052623;28;20027;-75
2021/01/14 10:48:07;;;;;;;1.33;0.90;;;1.10;99.90;;;;;;5065470;28;20028;-76
2021/01/14 10:50:47;;;;;;;1.35;1.05;;;1.10;99.90;;;;;;5067395;28;20027;-75
2021/01/14 10:53:32;;;;;;;1.20;0.90;;;1.10;99.90;;;;;;5060781;28;20035;-75
2021/01/14 10:56:25;;;;;;;1.10;1.00;;;1.00;99.90;;;;;;5040184;28;20387;-74
2021/01/14 10:59:06;;;;;;;0.65;0.63;;;1.00;99.90;;;;;;5060884;28;20071;-74
2021/01/14 11:01:32;;;;;;;2.30;1.30;;;0.90;99.90;;;;;;5056180;28;20061;-74
2021/01/14 11:04:06;;;;;;;1.02;0.88;;;0.90;99.90;;;;;;5067020;28;20084;-75
2021/01/14 11:06:36;;;;;;;3.05;1.30;;;0.90;99.90;;;;;;5063554;28;20493;-74
2021/01/14 11:09:10;;;;;;;2.10;0.90;;;1.00;99.90;;;;;;5066619;28;20017;-75
2021/01/14 11:11:39;;;;;;;1.42;0.90;;;0.90;99.90;;;;;;5061996;28;20112;-75
2021/01/14 11:14:05;;;;;;;1.42;0.93;;;1.00;99.90;;;;;;5059400;28;20033;-74
2021/01/14 11:16:30;;;;;;;3.53;0.85;;;1.00;99.90;;;;;;5059283;28;20629;-74
2021/01/14 11:18:58;;;;;;;1.80;1.00;;;1.00;99.90;;;;;;5043552;28;20045;-74
2021/01/14 11:21:28;;;;;;;1.90;1.40;;;0.90;99.90;;;;;;5066196;28;20040;-74
2021/01/14 11:23:55;;;;;;;2.10;1.00;;;1.00;99.90;;;;;;5067003;28;20410;-74
2021/01/14 11:26:21;;;;;;;2.33;1.50;;;1.00;99.90;;;;;;5064717;28;20053;-74
2021/01/14 11:28:48;;;;;;;1.58;1.02;;;1.10;99.90;;;;;;5063654;28;20504;-74
2021/01/14 11:31:15;;;;;;;2.03;1.13;;;1.10;99.90;;;;;;5067759;28;20033;-74
2021/01/14 11:33:42;;;;;;;3.05;1.00;;;1.20;99.90;;;;;;5078700;28;20059;-74
2021/01/14 11:36:13;;;;;;;2.25;1.02;;;1.20;99.90;;;;;;5054457;28;20103;-74
2021/01/14 11:38:41;;;;;;;3.67;1.23;;;1.20;99.90;;;;;;5066763;28;20078;-74
2021/01/14 11:41:07;;;;;;;1.00;0.90;;;1.20;99.90;;;;;;5067968;28;20024;-74
2021/01/14 11:43:33;;;;;;;1.52;1.00;;;1.30;99.90;;;;;;5071465;28;20029;-74
2021/01/14 11:46:00;;;;;;;2.83;0.82;;;1.30;99.90;;;;;;5071558;28;20111;-75
2021/01/14 12:20:37;;;;;;;;;;;0.90;99.90;;;;;;5072954;28;20410;-75
2021/01/14 12:23:03;;;;;;;3.83;1.50;;;1.10;99.90;;;;;;5066202;28;20441;-75
2021/01/14 12:25:29;;;;;;;1.45;1.05;;;1.20;99.90;;;;;;5063619;28;20418;-75
2021/01/14 12:27:54;;;;;;;1.40;1.10;;;1.20;99.90;;;;;;5063929;28;20043;-76
2021/01/14 12:30:24;;;;;;;1.40;0.90;;;1.20;99.90;;;;;;5058852;28;20032;-76
2021/01/14 12:32:50;;;;;;;1.73;1.02;;;1.30;99.90;;;;;;5040589;28;20041;-75
2021/01/14 12:35:16;;;;;;;2.90;0.90;;;1.40;99.90;;;;;;5057757;28;20029;-76
2021/01/14 12:37:41;;;;;;;2.35;0.95;;;1.40;99.90;;;;;;5055339;28;20087;-76
2021/01/14 12:40:09;;;;;;;1.35;0.90;;;1.40;99.90;;;;;;5049782;28;20755;-76
2021/01/14 12:42:35;;;;;;;1.00;0.90;;;1.40;99.90;;;;;;5045301;28;20040;-76
2021/01/14 12:45:01;;;;;;;3.70;1.10;;;1.50;99.90;;;;;;5049183;28;20029;-77
2021/01/14 12:47:27;;;;;;;2.42;1.20;;;1.50;99.90;;;;;;5056615;28;20064;-76
2021/01/14 12:49:53;;;;;;;1.30;1.20;;;1.60;99.90;;;;;;5065661;28;20029;-75
2021/01/14 12:52:19;;;;;;;1.45;1.08;;;1.50;99.90;;;;;;5058638;28;20024;-76
2021/01/14 12:54:44;;;;;;;2.78;1.17;;;1.50;99.90;;;;;;5044306;28;20024;-77
2021/01/14 12:57:10;;;;;;;1.15;0.95;;;1.50;99.90;;;;;;5035403;28;20067;-76
2021/01/14 12:59:36;;;;;;;1.25;0.88;;;1.50;99.90;;;;;;5021192;28;20043;-76
2021/01/14 13:02:05;;;;;;;1.98;1.15;;;1.50;99.90;;;;;;5055515;28;20052;-76
2021/01/14 13:04:31;;;;;;;2.53;0.93;;;1.40;99.90;;;;;;5056465;28;20047;-75
2021/01/14 13:06:57;;;;;;;1.60;0.90;;;1.40;99.90;;;;;;5057218;28;20032;-75
2021/01/14 13:09:23;;;;;;;1.55;0.95;;;1.30;99.90;;;;;;5050390;28;20035;-76
2021/01/14 13:11:55;;;;;;;1.25;0.75;;;1.30;99.90;;;;;;5054365;28;20454;-76
2021/01/14 13:14:20;;;;;;;2.00;1.30;;;1.30;99.90;;;;;;5061010;28;20036;-76
2021/01/14 13:16:46;;;;;;;1.50;1.35;;;1.30;99.90;;;;;;5090043;28;20021;-77
2021/01/14 13:19:12;;;;;;;2.60;1.10;;;1.30;99.90;;;;;;5056986;28;20021;-77
2021/01/14 13:21:42;;;;;;;2.10;0.90;;;1.30;99.90;;;;;;5050761;28;20039;-77
2021/01/14 13:24:10;;;;;;;1.25;1.10;;;1.30;99.90;;;;;;5050123;28;20488;-76
2021/01/14 13:26:37;;;;;;;2.67;1.13;;;1.20;99.90;;;;;;5041805;28;20025;-75
2021/01/14 13:29:04;;;;;;;2.20;1.20;;;1.20;99.90;;;;;;5042507;28;20484;-76
2021/01/14 13:31:39;;;;;;;1.50;0.95;;;1.20;99.90;;;;;;5025402;28;20036;-76
2021/01/14 13:34:05;;;;;;;0.90;0.82;;;1.20;99.90;;;;;;5043072;28;20128;-75
2021/01/14 13:36:31;;;;;;;1.65;1.00;;;1.20;99.90;;;;;;5066926;28;20624;-77